Time;durP1;ratioP1;P1;durP2;ratioP2;P2;SDS_P1;SDS_P2;PMS_P1;PMS_P2;Temp;Humidity;BMP_temperature;BMP_pressure;BME280_temperature;BME280_humidity;BME280_pressure;Samples;Min_cycle;Max_cycle;Signal;HPM_P1;HPM_P2
2023/04/13 00:00:53;;;;;;;10.27;3.47;;;;;;;9.56;100.00;99416.66;5072673;28;20840;-70
2023/04/13 00:03:20;;;;;;;8.73;3.87;;;;;;;9.58;100.00;99406.31;5071093;28;20468;-70
2023/04/13 00:05:47;;;;;;;9.50;3.80;;;;;;;9.54;100.00;99405.38;5073681;28;20489;-70
2023/04/13 00:08:15;;;;;;;11.33;3.97;;;;;;;9.45;100.00;99404.59;5072736;28;20465;-71
2023/04/13 00:10:42;;;;;;;9.27;3.93;;;;;;;9.43;100.00;99395.22;5070345;28;20998;-70
2023/04/13 00:13:10;;;;;;;10.37;4.00;;;;;;;9.38;100.00;99398.91;5071456;28;20485;-70
2023/04/13 00:15:41;;;;;;;7.37;2.70;;;;;;;9.33;100.00;99397.16;5072158;28;20500;-70
2023/04/13 00:18:11;;;;;;;9.90;3.20;;;;;;;9.30;100.00;99408.63;5073098;28;20507;-70
2023/04/13 00:20:39;;;;;;;8.87;3.20;;;;;;;9.25;100.00;99400.69;5072627;28;20477;-71
2023/04/13 00:23:06;;;;;;;8.10;3.57;;;;;;;9.17;100.00;99409.59;5071946;28;20453;-70
2023/04/13 00:25:33;;;;;;;7.90;2.93;;;;;;;9.16;100.00;99416.09;5072954;28;20484;-71
2023/04/13 00:28:01;;;;;;;11.47;3.67;;;;;;;9.10;100.00;99425.50;5069451;28;20880;-70
2023/04/13 00:30:28;;;;;;;12.43;4.30;;;;;;;9.09;100.00;99429.31;5072513;28;20481;-72
2023/04/13 00:32:55;;;;;;;12.63;4.03;;;;;;;9.01;100.00;99419.31;5071351;28;21002;-72
2023/04/13 00:35:23;;;;;;;9.03;3.83;;;;;;;8.94;100.00;99429.78;5073841;28;20453;-71
2023/04/13 00:37:50;;;;;;;7.67;3.30;;;;;;;8.86;100.00;99434.09;5069099;28;20453;-71
2023/04/13 00:40:18;;;;;;;8.80;3.60;;;;;;;8.80;100.00;99438.06;5071495;28;20918;-71
2023/04/13 00:42:45;;;;;;;8.30;3.57;;;;;;;8.74;100.00;99440.13;5071152;28;20464;-71
2023/04/13 00:45:12;;;;;;;9.70;2.57;;;;;;;8.70;100.00;99459.97;5072286;28;20882;-71
2023/04/13 00:47:40;;;;;;;9.00;3.17;;;;;;;8.63;100.00;99465.03;5072031;28;20453;-73
2023/04/13 00:50:08;;;;;;;9.87;3.77;;;;;;;8.54;100.00;99479.31;5067839;28;20473;-71
2023/04/13 00:52:37;;;;;;;7.70;3.30;;;;;;;8.53;100.00;99472.31;5072338;28;20481;-72
2023/04/13 00:55:05;;;;;;;9.30;3.77;;;;;;;8.55;100.00;99474.72;5072498;28;20971;-72
2023/04/13 00:57:33;;;;;;;11.90;3.60;;;;;;;8.51;100.00;99476.47;5072668;28;20449;-73
2023/04/13 01:00:00;;;;;;;9.17;4.10;;;;;;;8.51;100.00;99479.94;5074637;28;20465;-72
2023/04/13 01:02:27;;;;;;;10.50;3.47;;;;;;;8.59;100.00;99494.56;5073085;28;20453;-73
2023/04/13 01:04:55;;;;;;;11.60;4.17;;;;;;;8.65;100.00;99495.22;5071269;28;20508;-71
2023/04/13 01:07:27;;;;;;;11.33;4.40;;;;;;;8.72;100.00;99507.16;5071739;28;20457;-71
2023/04/13 01:10:06;;;;;;;8.20;3.70;;;;;;;8.73;100.00;99522.22;5072825;28;20556;-71
2023/04/13 01:12:39;;;;;;;12.00;3.27;;;;;;;8.79;100.00;99534.47;5071664;28;20473;-72
2023/04/13 01:15:10;;;;;;;8.80;3.83;;;;;;;8.78;100.00;99548.28;5068020;28;20456;-70
2023/04/13 01:17:38;;;;;;;10.50;3.93;;;;;;;8.73;100.00;99538.44;5071940;28;20457;-71
2023/04/13 01:20:10;;;;;;;13.57;4.30;;;;;;;8.72;100.00;99527.94;5071813;28;20483;-69
2023/04/13 01:22:40;;;;;;;11.33;4.47;;;;;;;8.75;100.00;99525.41;5070236;28;20507;-69
2023/04/13 01:25:30;;;;;;;11.37;4.07;;;;;;;8.79;100.00;99531.75;5070461;28;20473;-70
2023/04/13 01:28:01;;;;;;;11.30;3.87;;;;;;;8.72;100.00;99547.63;5056492;28;20469;-72
2023/04/13 01:30:31;;;;;;;11.00;4.00;;;;;;;8.65;100.00;99543.81;5068277;28;20481;-70
2023/04/13 01:33:00;;;;;;;9.13;3.73;;;;;;;8.63;100.00;99543.31;5071467;28;20512;-69
2023/04/13 01:35:28;;;;;;;8.80;3.50;;;;;;;8.58;100.00;99582.03;5071309;28;20468;-70
2023/04/13 01:37:56;;;;;;;11.37;5.07;;;;;;;8.55;100.00;99594.25;5071225;28;20491;-69
2023/04/13 01:40:24;;;;;;;12.73;3.83;;;;;;;8.50;100.00;99578.22;5072249;28;20484;-68
2023/04/13 01:42:52;;;;;;;10.90;4.03;;;;;;;8.45;100.00;99583.72;5072397;28;20434;-70
2023/04/13 01:45:24;;;;;;;10.47;3.90;;;;;;;8.48;100.00;99583.13;5071653;28;20465;-68
2023/04/13 01:47:59;;;;;;;7.63;2.97;;;;;;;8.40;100.00;99577.69;5072129;28;20465;-68
2023/04/13 01:50:28;;;;;;;12.27;5.00;;;;;;;8.37;100.00;99584.50;5068684;28;20512;-69
2023/04/13 01:53:00;;;;;;;10.27;4.07;;;;;;;8.33;100.00;99587.00;5073312;28;20515;-70
2023/04/13 01:55:29;;;;;;;10.13;3.57;;;;;;;8.29;100.00;99604.13;5075009;28;20977;-69
2023/04/13 01:58:00;;;;;;;10.37;4.53;;;;;;;8.30;100.00;99611.88;5074921;28;20457;-71
2023/04/13 02:00:34;;;;;;;11.13;4.50;;;;;;;8.29;100.00;99623.78;5074154;28;20552;-68
2023/04/13 02:03:04;;;;;;;13.43;6.13;;;;;;;8.26;100.00;99627.09;5075216;28;20474;-68
2023/04/13 02:05:30;;;;;;;13.27;4.70;;;;;;;8.25;100.00;99619.31;5074622;28;20514;-68
2023/04/13 02:07:57;;;;;;;10.23;3.93;;;;;;;8.17;100.00;99620.06;5076026;28;20975;-68
2023/04/13 02:10:25;;;;;;;9.10;3.20;;;;;;;8.16;100.00;99619.28;5074621;28;20508;-67
2023/04/13 02:12:52;;;;;;;10.30;3.50;;;;;;;8.14;100.00;99621.47;5074435;28;20550;-68
2023/04/13 02:15:19;;;;;;;8.03;3.37;;;;;;;8.09;100.00;99616.22;5076369;28;20461;-67
2023/04/13 02:17:47;;;;;;;9.73;3.83;;;;;;;8.08;100.00;99614.63;5075388;28;20510;-70
2023/04/13 02:20:13;;;;;;;11.40;4.13;;;;;;;8.08;100.00;99618.13;5075136;28;20515;-69
2023/04/13 02:22:40;;;;;;;8.93;3.40;;;;;;;8.04;100.00;99619.81;5075227;28;20453;-68
2023/04/13 02:25:10;;;;;;;10.83;4.00;;;;;;;8.01;100.00;99623.16;5074830;28;20575;-69
2023/04/13 02:27:37;;;;;;;14.97;4.60;;;;;;;7.97;100.00;99626.75;5071409;28;20466;-69
2023/04/13 02:30:06;;;;;;;10.03;3.90;;;;;;;7.91;100.00;99628.78;5075844;28;20488;-68
2023/04/13 02:32:33;;;;;;;10.97;3.97;;;;;;;7.87;100.00;99627.00;5076366;28;20457;-68
2023/04/13 02:35:01;;;;;;;13.93;3.63;;;;;;;7.79;100.00;99613.19;5076039;28;20463;-69
2023/04/13 02:37:30;;;;;;;10.10;3.90;;;;;;;7.77;100.00;99623.44;5077989;28;20889;-70
2023/04/13 02:39:56;;;;;;;10.53;4.27;;;;;;;7.75;100.00;99622.97;5076049;28;20528;-67
2023/04/13 02:42:23;;;;;;;10.07;3.33;;;;;;;7.78;100.00;99632.34;5077769;28;20489;-69
2023/04/13 02:44:50;;;;;;;18.43;3.87;;;;;;;7.77;100.00;99631.53;5076136;28;20492;-71
2023/04/13 02:47:16;;;;;;;10.40;3.80;;;;;;;7.76;100.00;99642.63;5076251;28;20457;-68
2023/04/13 02:49:44;;;;;;;10.70;3.10;;;;;;;7.75;100.00;99652.63;5074266;28;20694;-68
2023/04/13 02:52:12;;;;;;;10.53;3.83;;;;;;;7.72;100.00;99628.97;5075678;28;20861;-68
2023/04/13 02:54:39;;;;;;;12.43;3.70;;;;;;;7.62;100.00;99634.59;5075222;28;20481;-68
2023/04/13 02:57:06;;;;;;;12.93;4.33;;;;;;;7.54;100.00;99635.31;5074468;28;20490;-69
2023/04/13 02:59:33;;;;;;;10.73;4.00;;;;;;;7.49;100.00;99643.53;5073569;28;21085;-70
2023/04/13 03:02:00;;;;;;;9.80;3.50;;;;;;;7.39;100.00;99643.72;5072608;28;22358;-69
2023/04/13 03:04:27;;;;;;;9.00;3.40;;;;;;;7.36;100.00;99639.75;5074900;28;20446;-70
2023/04/13 03:06:55;;;;;;;9.53;3.10;;;;;;;7.31;100.00;99635.28;5074548;28;20476;-70
2023/04/13 03:09:24;;;;;;;10.27;4.00;;;;;;;7.30;100.00;99641.78;5074512;28;21037;-68
2023/04/13 03:11:50;;;;;;;10.23;3.07;;;;;;;7.23;100.00;99629.81;5074401;28;20492;-69
2023/04/13 03:14:20;;;;;;;9.03;2.73;;;;;;;7.16;100.00;99629.41;5074892;28;20483;-68
2023/04/13 03:16:48;;;;;;;6.83;2.73;;;;;;;7.16;100.00;99643.66;5072941;28;20461;-69
2023/04/13 03:19:15;;;;;;;12.63;3.53;;;;;;;7.13;100.00;99641.59;5075120;28;20469;-69
2023/04/13 03:21:43;;;;;;;10.27;3.20;;;;;;;7.14;100.00;99637.81;5072241;28;20464;-70
2023/04/13 03:24:10;;;;;;;9.33;3.20;;;;;;;7.18;100.00;99646.88;5073640;28;20457;-69
2023/04/13 03:26:38;;;;;;;14.60;4.23;;;;;;;7.21;100.00;99643.56;5071686;28;20456;-71
2023/04/13 03:29:04;;;;;;;11.40;3.03;;;;;;;7.19;100.00;99643.06;5063886;28;20501;-68
2023/04/13 03:31:31;;;;;;;11.07;3.50;;;;;;;7.20;100.00;99639.28;5073928;28;20464;-68
2023/04/13 03:33:58;;;;;;;11.37;3.70;;;;;;;7.17;100.00;99652.53;5073131;28;20583;-69
2023/04/13 03:36:26;;;;;;;7.77;3.03;;;;;;;7.15;100.00;99647.47;5072444;28;20497;-68
2023/04/13 03:38:52;;;;;;;11.07;3.90;;;;;;;7.17;100.00;99634.50;5070657;28;20489;-68
2023/04/13 03:41:19;;;;;;;13.77;3.87;;;;;;;7.16;100.00;99634.78;5072886;28;20835;-68
2023/04/13 03:43:47;;;;;;;8.20;3.17;;;;;;;7.14;100.00;99623.53;5073328;28;20457;-66
2023/04/13 03:46:14;;;;;;;9.80;3.03;;;;;;;7.08;100.00;99628.22;5072540;28;20553;-69
2023/04/13 03:48:40;;;;;;;8.67;3.00;;;;;;;6.97;100.00;99616.06;5060622;28;20461;-67
2023/04/13 03:51:07;;;;;;;10.27;3.70;;;;;;;7.01;100.00;99634.03;5072822;28;20461;-66
2023/04/13 03:53:36;;;;;;;8.47;3.10;;;;;;;7.08;100.00;99639.81;5072374;28;20481;-68
2023/04/13 03:56:03;;;;;;;8.80;3.20;;;;;;;7.08;100.00;99645.19;5072807;28;20538;-68
2023/04/13 03:58:30;;;;;;;9.67;3.00;;;;;;;7.08;100.00;99649.75;5071647;28;20520;-67
2023/04/13 04:00:58;;;;;;;13.70;3.77;;;;;;;7.03;100.00;99652.56;5068220;28;20463;-73
2023/04/13 04:03:25;;;;;;;8.57;3.27;;;;;;;6.94;100.00;99660.53;5065018;28;20461;-66
2023/04/13 04:05:52;;;;;;;9.00;3.80;;;;;;;6.90;100.00;99662.22;5072383;28;20465;-70
2023/04/13 04:08:18;;;;;;;11.87;3.70;;;;;;;6.79;100.00;99664.34;5073014;28;20450;-70
2023/04/13 04:10:45;;;;;;;11.00;3.57;;;;;;;6.76;100.00;99664.13;5070007;28;20485;-70
2023/04/13 04:13:12;;;;;;;8.90;2.93;;;;;;;6.80;100.00;99668.59;5065002;28;20533;-71
2023/04/13 04:15:38;;;;;;;13.10;3.60;;;;;;;6.79;100.00;99669.72;5068537;28;20461;-69
2023/04/13 04:18:07;;;;;;;8.00;2.93;;;;;;;6.69;100.00;99674.50;5070094;28;20461;-71
2023/04/13 04:20:33;;;;;;;9.43;3.70;;;;;;;6.58;100.00;99671.97;5073265;28;21003;-71
2023/04/13 04:23:03;;;;;;;7.90;2.87;;;;;;;6.65;100.00;99674.28;5075527;28;20501;-70
2023/04/13 04:25:32;;;;;;;10.43;3.27;;;;;;;6.65;100.00;99690.44;5073132;28;20465;-70
2023/04/13 04:28:01;;;;;;;8.67;3.50;;;;;;;6.64;100.00;99686.16;5072951;28;20844;-71
2023/04/13 04:30:28;;;;;;;9.30;3.27;;;;;;;6.57;100.00;99674.97;5073275;28;20469;-70
2023/04/13 04:32:55;;;;;;;11.87;3.70;;;;;;;6.52;100.00;99686.63;5073072;28;20890;-66
2023/04/13 04:35:24;;;;;;;9.23;3.80;;;;;;;6.42;100.00;99683.28;5072088;28;20553;-69
2023/04/13 04:37:51;;;;;;;9.00;3.23;;;;;;;6.39;100.00;99686.59;5072326;28;20475;-71
2023/04/13 04:40:18;;;;;;;9.10;3.47;;;;;;;6.41;100.00;99687.09;5072843;28;20591;-68
2023/04/13 04:42:45;;;;;;;8.30;3.30;;;;;;;6.35;100.00;99691.75;5072025;28;20457;-72
2023/04/13 04:45:13;;;;;;;11.33;4.30;;;;;;;6.46;100.00;99689.69;5062983;28;20469;-70
2023/04/13 04:47:42;;;;;;;9.70;3.30;;;;;;;6.46;100.00;99693.19;5071460;28;20498;-71
2023/04/13 04:50:10;;;;;;;17.37;4.90;;;;;;;6.46;100.00;99687.81;5067323;28;20564;-70
2023/04/13 04:52:38;;;;;;;9.37;3.27;;;;;;;6.54;100.00;99683.63;5071298;28;20510;-70
2023/04/13 04:55:06;;;;;;;10.90;3.83;;;;;;;6.58;100.00;99671.19;5071719;28;20485;-70
2023/04/13 04:57:33;;;;;;;13.20;4.27;;;;;;;6.61;100.00;99673.28;5072410;28;20460;-70
2023/04/13 05:00:00;;;;;;;10.93;3.57;;;;;;;6.59;100.00;99672.78;5070148;28;20556;-68
2023/04/13 05:02:27;;;;;;;9.47;3.27;;;;;;;6.61;100.00;99681.34;5067447;28;20457;-71
2023/04/13 05:04:54;;;;;;;11.87;3.50;;;;;;;6.68;100.00;99686.34;5070693;28;20484;-70
2023/04/13 05:07:21;;;;;;;9.40;3.80;;;;;;;6.81;100.00;99689.03;5061378;28;20462;-69
2023/04/13 05:09:49;;;;;;;9.70;3.00;;;;;;;6.92;100.00;99694.25;5053361;28;20469;-70
2023/04/13 05:12:16;;;;;;;9.30;3.37;;;;;;;6.90;100.00;99680.28;5053731;28;20546;-70
2023/04/13 05:14:46;;;;;;;12.60;3.60;;;;;;;6.97;100.00;99686.06;5053332;28;20485;-69
2023/04/13 05:17:17;;;;;;;8.03;3.03;;;;;;;6.98;100.00;99682.28;5053694;28;20473;-69
2023/04/13 05:19:43;;;;;;;10.90;3.63;;;;;;;7.09;100.00;99686.38;5053373;28;20462;-70
2023/04/13 05:22:10;;;;;;;11.10;3.50;;;;;;;7.18;100.00;99687.25;5053597;28;20905;-70
2023/04/13 05:24:37;;;;;;;12.80;3.80;;;;;;;7.23;100.00;99695.25;5053930;28;20442;-69
2023/04/13 05:27:05;;;;;;;12.90;3.83;;;;;;;7.19;100.00;99696.13;5053668;28;20438;-69
2023/04/13 05:29:34;;;;;;;12.60;3.47;;;;;;;7.27;100.00;99701.63;5053426;28;20469;-70
2023/04/13 05:32:00;;;;;;;12.80;4.17;;;;;;;7.29;100.00;99710.19;5053757;28;20532;-69
2023/04/13 05:34:27;;;;;;;8.33;2.83;;;;;;;7.34;100.00;99710.06;5053701;28;20486;-70
2023/04/13 05:36:54;;;;;;;9.63;3.00;;;;;;;7.41;100.00;99711.59;5053601;28;20537;-69
2023/04/13 05:39:21;;;;;;;7.97;3.37;;;;;;;7.45;100.00;99720.66;5053759;28;20474;-68
2023/04/13 05:41:48;;;;;;;9.07;3.40;;;;;;;7.39;100.00;99722.66;5054557;28;20517;-70
2023/04/13 05:44:16;;;;;;;7.80;3.30;;;;;;;7.44;100.00;99727.16;5055386;28;20457;-69
2023/04/13 05:46:42;;;;;;;9.43;3.40;;;;;;;7.41;100.00;99739.31;5054469;28;20940;-70
2023/04/13 05:49:09;;;;;;;8.00;3.17;;;;;;;7.41;100.00;99736.63;5054247;28;20521;-68
2023/04/13 05:51:36;;;;;;;9.50;3.77;;;;;;;7.40;100.00;99753.09;5054576;28;20521;-70
2023/04/13 05:54:03;;;;;;;8.57;2.90;;;;;;;7.44;100.00;99748.72;5054576;28;20570;-68
2023/04/13 05:56:29;;;;;;;9.27;2.80;;;;;;;7.48;100.00;99760.47;5054588;28;20446;-70
2023/04/13 05:58:56;;;;;;;8.17;3.00;;;;;;;7.51;100.00;99759.88;5054709;28;20901;-69
2023/04/13 06:01:24;;;;;;;8.53;3.50;;;;;;;7.63;100.00;99760.16;5054068;28;20508;-67
2023/04/13 06:03:52;;;;;;;10.07;4.10;;;;;;;7.72;100.00;99773.72;5055197;28;20442;-68
2023/04/13 06:06:19;;;;;;;11.30;3.80;;;;;;;7.72;100.00;99777.22;5053850;28;20947;-68
2023/04/13 06:08:46;;;;;;;11.53;4.17;;;;;;;7.88;100.00;99782.28;5053376;28;20446;-67
2023/04/13 06:11:14;;;;;;;8.30;3.17;;;;;;;7.89;100.00;99781.19;5053552;28;20541;-67
2023/04/13 06:13:41;;;;;;;8.53;3.80;;;;;;;8.01;100.00;99784.97;5053496;28;20453;-68
2023/04/13 06:16:09;;;;;;;13.13;4.57;;;;;;;8.05;100.00;99777.03;5053237;28;20911;-68
2023/04/13 06:18:37;;;;;;;12.53;3.83;;;;;;;8.12;100.00;99790.91;5052881;28;20533;-67
2023/04/13 06:21:04;;;;;;;9.97;4.10;;;;;;;8.22;100.00;99789.88;5053281;28;20438;-68
2023/04/13 06:23:30;;;;;;;8.93;3.27;;;;;;;8.25;100.00;99784.69;5053026;28;20446;-67
2023/04/13 06:25:58;;;;;;;10.67;4.03;;;;;;;8.27;100.00;99782.47;5052776;28;20457;-67
2023/04/13 06:28:28;;;;;;;9.20;3.77;;;;;;;8.32;100.00;99790.47;5052551;28;20533;-68
2023/04/13 06:30:54;;;;;;;8.07;3.17;;;;;;;8.38;100.00;99799.25;5052349;28;20450;-67
2023/04/13 06:33:21;;;;;;;7.80;3.20;;;;;;;8.43;100.00;99795.66;5052788;28;20523;-67
2023/04/13 06:35:50;;;;;;;9.87;3.83;;;;;;;8.45;100.00;99804.22;5052557;28;20488;-68
2023/04/13 06:38:17;;;;;;;12.07;3.90;;;;;;;8.47;100.00;99802.03;5054033;28;20554;-67
2023/04/13 06:40:45;;;;;;;8.80;3.40;;;;;;;8.53;100.00;99800.78;5055999;28;20481;-66
2023/04/13 06:43:11;;;;;;;9.33;3.33;;;;;;;8.62;100.00;99809.75;5056246;28;20508;-68
2023/04/13 06:45:38;;;;;;;10.50;3.30;;;;;;;8.71;100.00;99809.81;5056169;28;20521;-70
2023/04/13 06:48:05;;;;;;;8.73;3.10;;;;;;;8.71;100.00;99824.09;5055954;28;20979;-71
2023/04/13 06:50:32;;;;;;;10.77;2.60;;;;;;;8.68;100.00;99829.34;5056253;28;20470;-67
2023/04/13 06:53:00;;;;;;;8.83;3.07;;;;;;;8.79;100.00;99836.88;5055983;28;20481;-71
2023/04/13 06:55:27;;;;;;;13.43;3.00;;;;;;;8.88;100.00;99834.22;5055885;28;20899;-69
2023/04/13 06:57:53;;;;;;;6.70;2.40;;;;;;;8.97;100.00;99842.38;5055603;28;20453;-66
2023/04/13 07:00:20;;;;;;;6.87;2.23;;;;;;;8.99;100.00;99851.00;5055835;28;20472;-65
2023/04/13 07:02:47;;;;;;;7.07;2.63;;;;;;;9.04;100.00;99851.66;5055843;28;20500;-67
2023/04/13 07:05:14;;;;;;;7.80;2.60;;;;;;;9.03;100.00;99851.94;5055748;28;20540;-65
2023/04/13 07:07:40;;;;;;;7.80;2.67;;;;;;;9.03;100.00;99852.78;5055349;28;20446;-65
2023/04/13 07:10:09;;;;;;;6.87;2.57;;;;;;;9.17;100.00;99852.69;5055587;28;20583;-66
2023/04/13 07:12:36;;;;;;;6.37;1.90;;;;;;;9.28;100.00;99856.72;5055593;28;20864;-65
2023/04/13 07:15:02;;;;;;;9.50;2.30;;;;;;;9.36;100.00;99860.56;5055429;28;20600;-66
2023/04/13 07:17:30;;;;;;;10.70;2.40;;;;;;;9.41;100.00;99857.72;5055284;28;21008;-64
2023/04/13 07:19:56;;;;;;;7.50;1.90;;;;;;;9.51;100.00;99856.66;5055203;28;20470;-65
2023/04/13 07:22:23;;;;;;;7.57;2.03;;;;;;;9.53;100.00;99859.84;5055293;28;20605;-66
2023/04/13 07:24:50;;;;;;;7.30;2.00;;;;;;;9.53;99.63;99865.25;5055379;28;20957;-67
2023/04/13 07:27:18;;;;;;;8.57;2.60;;;;;;;9.64;99.69;99857.66;5055847;28;20500;-66
2023/04/13 07:29:44;;;;;;;7.70;2.40;;;;;;;9.72;98.23;99855.00;5055513;28;20591;-67
2023/04/13 07:32:11;;;;;;;6.37;1.97;;;;;;;9.77;98.47;99868.38;5055584;28;20482;-66
2023/04/13 07:34:37;;;;;;;6.57;1.77;;;;;;;9.83;98.25;99861.72;5055844;28;20482;-65
2023/04/13 07:37:04;;;;;;;6.00;1.77;;;;;;;9.95;97.60;99866.50;5055752;28;20443;-66
2023/04/13 07:39:31;;;;;;;9.70;1.80;;;;;;;10.05;97.30;99860.03;5055426;28;20577;-67
2023/04/13 07:41:57;;;;;;;9.23;2.10;;;;;;;10.17;97.09;99852.06;5056119;28;20477;-66
2023/04/13 07:44:25;;;;;;;8.53;1.67;;;;;;;10.24;96.19;99863.28;5056741;28;20438;-66
2023/04/13 07:46:52;;;;;;;5.80;1.80;;;;;;;10.12;91.70;99879.28;5057017;28;20533;-66
2023/04/13 07:49:18;;;;;;;6.90;1.97;;;;;;;10.09;92.23;99875.31;5055675;28;20545;-66
2023/04/13 07:51:45;;;;;;;5.80;1.60;;;;;;;10.13;91.30;99871.97;5056794;28;20450;-66
2023/04/13 07:54:12;;;;;;;7.93;1.67;;;;;;;10.15;90.48;99870.53;5055246;28;20533;-66
2023/04/13 07:56:38;;;;;;;9.60;1.70;;;;;;;10.15;91.18;99859.72;5055008;28;20446;-66
2023/04/13 07:59:05;;;;;;;5.47;1.37;;;;;;;10.23;93.27;99877.88;5055076;28;20463;-65
2023/04/13 08:01:33;;;;;;;5.47;1.40;;;;;;;10.34;89.76;99873.78;5055078;28;20863;-66
2023/04/13 08:04:00;;;;;;;5.27;1.20;;;;;;;10.41;88.21;99878.75;5054346;28;20892;-65
2023/04/13 08:06:27;;;;;;;6.23;1.33;;;;;;;10.51;87.53;99873.00;5054605;28;20489;-65
2023/04/13 08:08:54;;;;;;;5.53;1.33;;;;;;;10.49;84.61;99880.66;5054577;28;20466;-65
2023/04/13 08:11:20;;;;;;;4.87;1.40;;;;;;;10.58;85.17;99880.63;5054961;28;20874;-65
2023/04/13 08:13:47;;;;;;;4.43;1.13;;;;;;;10.66;83.08;99884.47;5054274;28;20450;-64
2023/04/13 08:16:15;;;;;;;7.03;1.20;;;;;;;10.67;84.46;99889.59;5054694;28;20521;-68
2023/04/13 08:18:43;;;;;;;4.10;0.70;;;;;;;10.79;84.02;99900.56;5054194;28;20442;-67
2023/04/13 08:21:10;;;;;;;6.50;1.10;;;;;;;10.84;81.80;99888.75;5054431;28;20478;-66
2023/04/13 08:23:39;;;;;;;5.57;1.23;;;;;;;10.84;78.15;99896.88;5054121;28;20814;-66
2023/04/13 08:26:05;;;;;;;6.93;1.53;;;;;;;10.84;79.78;99900.41;5054556;28;20438;-65
2023/04/13 08:28:32;;;;;;;7.00;1.67;;;;;;;10.92;79.49;99898.81;5054153;28;20984;-65
2023/04/13 08:30:59;;;;;;;4.60;1.30;;;;;;;10.98;79.20;99904.84;5054263;28;20906;-65
2023/04/13 08:33:26;;;;;;;4.20;0.70;;;;;;;11.11;79.17;99906.59;5054476;28;20445;-66
2023/04/13 08:35:54;;;;;;;4.63;0.77;;;;;;;11.14;80.72;99905.97;5054456;28;20492;-66
2023/04/13 08:38:20;;;;;;;5.80;1.07;;;;;;;11.23;77.70;99920.28;5054106;28;20438;-66
2023/04/13 08:40:48;;;;;;;4.97;1.10;;;;;;;11.30;73.97;99917.09;5053807;28;20569;-65
2023/04/13 08:43:15;;;;;;;5.50;1.00;;;;;;;11.32;76.14;99912.94;5054138;28;20442;-66
2023/04/13 08:45:42;;;;;;;4.53;0.97;;;;;;;11.43;74.67;99918.03;5054251;28;20444;-66
2023/04/13 08:48:11;;;;;;;5.33;0.97;;;;;;;11.47;76.87;99918.97;5054439;28;20450;-65
2023/04/13 08:50:37;;;;;;;6.27;1.00;;;;;;;11.54;71.49;99919.28;5054795;28;20470;-67
2023/04/13 08:53:06;;;;;;;7.37;0.97;;;;;;;11.45;73.05;99926.63;5054369;28;20525;-66
2023/04/13 08:55:32;;;;;;;4.30;0.63;;;;;;;11.40;72.67;99926.81;5054464;28;20477;-67
2023/04/13 08:58:00;;;;;;;4.53;0.87;;;;;;;11.45;70.81;99922.00;5054227;28;20529;-65
2023/04/13 09:00:28;;;;;;;5.17;1.33;;;;;;;11.45;71.18;99919.28;5053840;28;20549;-65
2023/04/13 09:03:01;;;;;;;5.10;1.10;;;;;;;11.37;73.17;99926.31;5053904;28;20446;-64
2023/04/13 09:05:29;;;;;;;8.37;1.33;;;;;;;11.39;70.42;99928.72;5053659;28;20429;-66
2023/04/13 09:07:59;;;;;;;5.20;1.00;;;;;;;11.37;70.31;99920.09;5053732;28;20823;-65
2023/04/13 09:10:27;;;;;;;4.60;1.00;;;;;;;11.33;72.00;99925.41;5053943;28;20467;-65
2023/04/13 09:12:54;;;;;;;6.07;1.17;;;;;;;11.41;72.30;99925.69;5053693;28;20446;-64
2023/04/13 09:15:22;;;;;;;6.03;0.87;;;;;;;11.60;71.47;99929.63;5053347;28;20492;-64
2023/04/13 09:17:49;;;;;;;5.43;1.73;;;;;;;11.74;70.27;99934.06;5053843;28;20453;-65
2023/04/13 09:20:20;;;;;;;6.20;1.63;;;;;;;11.80;69.33;99928.13;5054105;28;20541;-64
2023/04/13 09:22:46;;;;;;;6.70;0.87;;;;;;;11.81;68.74;99937.84;5053924;28;20466;-65
2023/04/13 09:25:21;;;;;;;4.93;0.90;;;;;;;11.83;70.30;99934.84;5053885;28;20877;-64
2023/04/13 09:27:50;;;;;;;7.00;1.00;;;;;;;11.80;68.62;99940.88;5054345;28;20449;-64
2023/04/13 09:30:20;;;;;;;4.13;0.63;;;;;;;11.68;68.05;99941.56;5053930;28;20466;-64
2023/04/13 09:32:47;;;;;;;6.20;1.03;;;;;;;11.58;68.28;99950.06;5053753;28;20454;-64
2023/04/13 09:35:13;;;;;;;4.60;0.90;;;;;;;11.48;68.96;99931.41;5053608;28;20485;-65
2023/04/13 09:37:41;;;;;;;4.40;0.80;;;;;;;11.48;70.58;99953.91;5053765;28;20445;-65
2023/04/13 09:40:12;;;;;;;4.97;1.23;;;;;;;11.48;68.34;99950.41;5053079;28;20858;-64
2023/04/13 09:42:40;;;;;;;4.93;1.00;;;;;;;11.52;68.37;99954.06;5053985;28;20435;-64
2023/04/13 09:45:09;;;;;;;4.83;0.90;;;;;;;11.52;69.50;99945.94;5053238;28;20474;-64
2023/04/13 09:47:37;;;;;;;4.50;0.70;;;;;;;11.55;73.47;99943.38;5052703;28;20525;-65
2023/04/13 09:50:05;;;;;;;6.63;0.80;;;;;;;11.70;70.59;99942.03;5053018;28;20470;-65
2023/04/13 09:52:33;;;;;;;5.50;1.07;;;;;;;11.92;70.85;99951.09;5053117;28;20446;-62
2023/04/13 09:54:59;;;;;;;10.00;2.70;;;;;;;12.12;66.11;99962.00;5052939;28;20485;-64
2023/04/13 09:57:27;;;;;;;5.60;1.47;;;;;;;12.15;70.01;99949.72;5052803;28;20492;-64
2023/04/13 09:59:54;;;;;;;6.33;1.50;;;;;;;12.26;63.07;99950.94;5052765;28;20446;-64
2023/04/13 10:02:22;;;;;;;5.83;1.60;;;;;;;12.25;65.03;99943.91;5052860;28;20529;-64
2023/04/13 10:04:49;;;;;;;5.00;0.90;;;;;;;12.37;65.73;99951.34;5052936;28;20541;-65
2023/04/13 10:07:17;;;;;;;4.20;0.77;;;;;;;12.57;64.07;99960.66;5052496;28;20514;-65
2023/04/13 10:09:44;;;;;;;4.30;0.70;;;;;;;12.79;62.51;99956.81;5052437;28;20470;-64
2023/04/13 10:12:12;;;;;;;5.23;0.90;;;;;;;12.85;61.42;99961.75;5052760;28;20445;-64
2023/04/13 10:14:42;;;;;;;4.07;0.53;;;;;;;13.04;62.87;99963.97;5056060;28;20454;-64
2023/04/13 10:17:36;;;;;;;4.93;1.00;;;;;;;13.20;60.20;99966.09;5056514;28;20437;-65
2023/04/13 10:20:10;;;;;;;4.43;0.60;;;;;;;13.25;59.30;99969.44;5056196;28;20552;-65
2023/04/13 10:22:38;;;;;;;7.13;0.80;;;;;;;13.28;61.05;99979.66;5056635;28;20430;-65
2023/04/13 10:25:06;;;;;;;6.23;0.77;;;;;;;13.36;61.91;99972.53;5056490;28;20480;-64
2023/04/13 10:27:35;;;;;;;4.00;0.60;;;;;;;13.37;59.96;99979.59;5056431;28;20449;-65
2023/04/13 10:30:13;;;;;;;4.97;0.90;;;;;;;13.29;58.44;99981.25;5056202;28;20972;-64
2023/04/13 10:32:41;;;;;;;4.10;0.53;;;;;;;13.19;59.13;99981.59;5056488;28;20430;-65
2023/04/13 10:35:14;;;;;;;8.47;0.90;;;;;;;13.30;61.41;99984.75;5056380;28;20426;-65
2023/04/13 10:37:42;;;;;;;4.47;0.83;;;;;;;13.35;60.11;99979.09;5056199;28;20450;-66
2023/04/13 10:40:12;;;;;;;5.33;0.93;;;;;;;13.41;60.20;99975.03;5055675;28;20513;-65
2023/04/13 10:42:41;;;;;;;6.60;0.60;;;;;;;13.59;59.02;99971.03;5055752;28;20446;-64
2023/04/13 10:45:17;;;;;;;5.03;0.77;;;;;;;13.68;57.55;99978.28;5055622;28;20454;-64
2023/04/13 10:47:46;;;;;;;4.10;0.63;;;;;;;13.71;58.17;99980.34;5055930;28;20468;-65
2023/04/13 10:50:17;;;;;;;4.37;0.73;;;;;;;13.71;58.76;99975.69;5055677;28;20458;-64
2023/04/13 10:52:56;;;;;;;4.83;0.73;;;;;;;13.76;57.14;99975.47;5056012;28;20935;-64
2023/04/13 10:55:24;;;;;;;4.83;0.70;;;;;;;13.82;57.70;99982.31;5055993;28;21030;-64
2023/04/13 10:57:50;;;;;;;4.40;1.00;;;;;;;13.85;57.83;99984.34;5056379;28;20450;-69
2023/04/13 11:00:20;;;;;;;5.17;0.97;;;;;;;13.83;56.66;99989.34;5056144;28;20462;-67
2023/04/13 11:02:50;;;;;;;4.67;1.00;;;;;;;13.98;56.90;99984.38;5055981;28;20509;-68
2023/04/13 11:05:18;;;;;;;4.50;0.70;;;;;;;13.98;56.32;99990.59;5056797;28;20517;-67
2023/04/13 11:07:45;;;;;;;4.30;0.60;;;;;;;14.20;57.53;99997.53;5056621;28;20447;-67
2023/04/13 11:10:11;;;;;;;4.77;1.00;;;;;;;14.48;59.90;99999.63;5056657;28;20501;-67
2023/04/13 11:12:38;;;;;;;4.70;0.80;;;;;;;14.58;57.42;100001.91;5056582;28;20456;-64
2023/04/13 11:15:06;;;;;;;8.03;0.83;;;;;;;14.64;57.89;100012.22;5056407;28;20451;-68
2023/04/13 11:17:32;;;;;;;4.20;0.70;;;;;;;14.65;55.86;100007.56;5055539;28;20450;-65
2023/04/13 11:20:03;;;;;;;4.97;0.87;;;;;;;14.50;55.52;100005.53;5055870;28;20605;-66
2023/04/13 11:22:35;;;;;;;4.63;0.80;;;;;;;14.48;56.62;100007.78;5056215;28;20855;-68
2023/04/13 11:25:07;;;;;;;4.97;0.80;;;;;;;14.46;57.26;100010.84;5055218;28;20446;-66
2023/04/13 11:27:34;;;;;;;5.07;0.80;;;;;;;14.63;54.22;100009.84;5055541;28;20527;-67
2023/04/13 11:30:04;;;;;;;7.80;0.83;;;;;;;14.57;57.13;100011.22;5055158;28;21019;-66
2023/04/13 11:32:32;;;;;;;4.33;0.70;;;;;;;14.54;53.61;100009.16;5054983;28;21003;-67
2023/04/13 11:35:07;;;;;;;6.07;1.00;;;;;;;14.53;54.62;100018.50;5055462;28;20454;-66